Time;durP1;ratioP1;P1;durP2;ratioP2;P2;SDS_P1;SDS_P2;PMS_P1;PMS_P2;Temp;Humidity;BMP_temperature;BMP_pressure;BME280_temperature;BME280_humidity;BME280_pressure;Samples;Min_cycle;Max_cycle;Signal;HPM_P1;HPM_P2
2023/10/08 05:15:33;;;;;;;;;;;;;;;;;;1483755;26;19939;-42
2023/10/08 05:18:13;;;;;;;;;;;;;;;;;;5029963;28;20406;-43
2023/10/08 05:25:58;;;;;;;;;;;;;;;;;;5030058;28;20194;-44
2023/10/08 05:28:24;;;;;;;;;;;;;;;;;;5030422;28;20229;-44
2023/10/08 05:31:11;;;;;;;;;;;;;;;;;;5030006;28;20002;-43
2023/10/08 05:36:35;;;;;;;;;;;;;;;;;;5030020;28;20295;-42
2023/10/08 05:39:04;;;;;;;;;;;;;;;;;;5030079;28;19988;-43
2023/10/08 05:41:51;;;;;;;;;;;;;;;;;;5030062;28;20287;-43
2023/10/08 05:47:06;;;;;;;;;;;;;;;;;;5035333;28;19916;-42
2023/10/08 06:02:28;;;;;;;;;;;;;;;;;;5049361;28;19909;-46
2023/10/08 06:07:55;;;;;;;;;;;;;;;;;;5050102;28;20315;-45
2023/10/08 06:18:28;;;;;;;;;;;;;;;;;;5049110;28;19920;-51
2023/10/08 06:20:54;;;;;;;;;;;;;;;;;;5049369;28;19954;-46
2023/10/08 06:23:20;;;;;;;;;;;;;;;;;;5049299;28;19970;-48
2023/10/08 06:25:46;;;;;;;;;;;;;;;;;;5049149;28;19909;-47
2023/10/08 06:28:12;;;;;;;;;;;;;;;;;;5049517;28;19936;-46
2023/10/08 06:30:40;;;;;;;;;;;;;;;;;;5049346;28;20306;-48
2023/10/08 06:33:06;;;;;;;;;;;;;;;;;;5049136;28;20394;-46
2023/10/08 06:35:33;;;;;;;;;;;;;;;;;;5049190;28;19912;-49
2023/10/08 06:38:07;;;;;;;;;;;;;;;;;;5049110;28;19909;-45
2023/10/08 06:43:26;;;;;;;;;;;;;;;;;;5049406;28;19913;-50
2023/10/08 06:45:57;;;;;;;;;;;;;;;;;;5048699;28;20387;-45
2023/10/08 06:48:23;;;;;;;;;;;;;;;;;;5049217;28;19962;-47
2023/10/08 06:50:49;;;;;;;;;;;;;;;;;;5048879;28;19909;-47
2023/10/08 06:53:18;;;;;;;;;;;;;;;;;;5048742;28;19913;-47
2023/10/08 06:55:44;;;;;;;;;;;;;;;;;;5049256;28;20008;-48
2023/10/08 06:58:11;;;;;;;;;;;;;;;;;;5049339;28;19948;-46
2023/10/08 07:00:40;;;;;;;;;;;;;;;;;;5049198;28;20519;-48
2023/10/08 07:03:07;;;;;;;;;;;;;;;;;;5048785;28;19984;-46
2023/10/08 07:05:36;;;;;;;;;;;;;;;;;;5048971;28;19916;-47
2023/10/08 07:08:06;;;;;;;;;;;;;;;;;;5051263;28;19908;-46
2023/10/08 07:10:32;;;;;;;;;;;;;;;;;;5053030;28;19916;-48
2023/10/08 07:12:59;;;;;;;;;;;;;;;;;;5052745;28;19994;-46
2023/10/08 07:15:26;;;;;;;;;;;;;;;;;;5052396;28;19915;-45
2023/10/08 07:17:52;;;;;;;;;;;;;;;;;;5045090;28;19920;-46
2023/10/08 07:20:22;;;;;;;;;;;;;;;;;;5050530;28;19913;-47
2023/10/08 07:22:54;;;;;;;;;;;;;;;;;;5053453;28;19920;-44
2023/10/08 07:25:21;;;;;;;;;;;;;;;;;;5053811;28;19908;-45
2023/10/08 07:27:47;;;;;;;;;;;;;;;;;;5051404;28;20336;-45
2023/10/08 07:30:13;;;;;;;;;;;;;;;;;;5043306;28;19913;-45
2023/10/08 07:32:39;;;;;;;;;;;;;;;;;;5054827;28;19954;-46
2023/10/08 07:37:46;;;;;;;;;;;;;;;;;;5073585;28;19908;-48
2023/10/08 07:40:13;;;;;;;;;;;;;;;;;;5073421;28;19912;-49
2023/10/08 07:42:38;;;;;;;;;;;;;;;;;;5072910;28;19954;-46
2023/10/08 07:45:04;;;;;;;;;;;;;;;;;;5073464;28;20343;-46
2023/10/08 07:47:30;;;;;;;;;;;;;;;;;;5065164;28;19912;-45
2023/10/08 07:49:56;;;;;;;;;;;;;;;;;;5053095;28;19923;-46
2023/10/08 07:52:22;;;;;;;;;;;;;;;;;;5052324;28;19954;-47
2023/10/08 07:54:48;;;;;;;;;;;;;;;;;;5051944;28;19924;-46
2023/10/08 07:57:26;;;;;;;;;;;;;;;;;;5052532;28;19909;-50
2023/10/08 07:59:54;;;;;;;;;;;;;;;;;;5053174;28;19943;-50
2023/10/08 08:02:23;;;;;;;;;;;;;;;;;;5043229;28;19956;-48
2023/10/08 08:04:50;;;;;;;;;;;;;;;;;;5029882;28;20343;-48
2023/10/08 08:07:16;;;;;;;;;;;;;;;;;;5040032;28;19913;-51
2023/10/08 08:09:44;;;;;;;;;;;;;;;;;;5052007;28;20454;-47
2023/10/08 08:12:14;;;;;;;;;;;;;;;;;;5033156;28;20268;-48
2023/10/08 08:14:41;;;;;;;;;;;;;;;;;;5050506;28;19923;-48
2023/10/08 08:17:13;;;;;;;;;;;;;;;;;;5051611;28;20468;-50
2023/10/08 08:19:39;;;;;;;;;;;;;;;;;;5050631;28;19909;-47
2023/10/08 08:22:05;;;;;;;;;;;;;;;;;;5050151;28;20295;-47
2023/10/08 08:24:35;;;;;;;;;;;;;;;;;;5049931;28;20378;-48
2023/10/08 08:27:07;;;;;;;;;;;;;;;;;;5047897;28;19913;-46
2023/10/08 08:29:44;;;;;;;;;;;;;;;;;;5051402;28;20322;-46
2023/10/08 08:32:12;;;;;;;;;;;;;;;;;;5052580;28;20386;-49
2023/10/08 08:34:43;;;;;;;;;;;;;;;;;;5051574;28;19919;-45
2023/10/08 08:37:09;;;;;;;;;;;;;;;;;;5051609;28;19943;-46
2023/10/08 08:39:36;;;;;;;;;;;;;;;;;;5051182;28;19966;-46
2023/10/08 08:42:02;;;;;;;;;;;;;;;;;;5051072;28;19959;-46
2023/10/08 08:44:29;;;;;;;;;;;;;;;;;;5051103;28;19952;-46
2023/10/08 08:46:55;;;;;;;;;;;;;;;;;;5051514;28;20008;-49
2023/10/08 08:49:21;;;;;;;;;;;;;;;;;;5050704;28;19944;-46
2023/10/08 08:51:52;;;;;;;;;;;;;;;;;;5051162;28;19959;-46
2023/10/08 08:54:19;;;;;;;;;;;;;;;;;;5050592;28;20437;-46
2023/10/08 08:56:45;;;;;;;;;;;;;;;;;;5051118;28;19909;-46
2023/10/08 08:59:11;;;;;;;;;;;;;;;;;;5050630;28;20295;-47
2023/10/08 09:01:38;;;;;;;;;;;;;;;;;;5050412;28;20415;-46
2023/10/08 09:04:07;;;;;;;;;;;;;;;;;;5050862;28;19913;-45
2023/10/08 09:06:33;;;;;;;;;;;;;;;;;;5050526;28;20106;-47
2023/10/08 09:09:11;;;;;;;;;;;;;;;;;;5050318;28;19951;-50
2023/10/08 09:11:40;;;;;;;;;;;;;;;;;;5050489;28;20398;-45
2023/10/08 09:14:06;;;;;;;;;;;;;;;;;;5049970;28;19952;-45
2023/10/08 09:16:33;;;;;;;;;;;;;;;;;;5049918;28;20409;-45
2023/10/08 09:19:00;;;;;;;;;;;;;;;;;;5049918;28;19913;-49
2023/10/08 09:21:26;;;;;;;;;;;;;;;;;;5050338;28;20059;-46
2023/10/08 09:23:54;;;;;;;;;;;;;;;;;;5050197;28;19931;-46
2023/10/08 09:26:20;;;;;;;;;;;;;;;;;;5050178;28;19975;-47
2023/10/08 09:28:46;;;;;;;;;;;;;;;;;;5050076;28;20399;-47
2023/10/08 09:31:12;;;;;;;;;;;;;;;;;;5050499;28;19913;-47
2023/10/08 09:33:39;;;;;;;;;;;;;;;;;;5050000;28;19913;-46
2023/10/08 09:36:04;;;;;;;;;;;;;;;;;;5050377;28;19909;-46
2023/10/08 09:38:31;;;;;;;;;;;;;;;;;;5047102;28;19959;-46
2023/10/08 09:40:57;;;;;;;;;;;;;;;;;;5047087;28;20011;-46
2023/10/08 09:43:24;;;;;;;;;;;;;;;;;;5047083;28;20011;-46
2023/10/08 09:45:49;;;;;;;;;;;;;;;;;;5050071;28;19962;-48
2023/10/08 09:48:15;;;;;;;;;;;;;;;;;;5045173;28;19909;-47
2023/10/08 09:50:42;;;;;;;;;;;;;;;;;;5048801;28;19908;-47
2023/10/08 09:53:10;;;;;;;;;;;;;;;;;;5052066;28;19928;-46
2023/10/08 09:55:36;;;;;;;;;;;;;;;;;;5057446;28;20012;-46
2023/10/08 09:58:02;;;;;;;;;;;;;;;;;;5051087;28;20441;-45
2023/10/08 10:00:31;;;;;;;;;;;;;;;;;;5049763;28;19909;-45
2023/10/08 10:02:57;;;;;;;;;;;;;;;;;;5038118;28;19917;-46
2023/10/08 10:05:24;;;;;;;;;;;;;;;;;;5031034;28;20406;-48
2023/10/08 10:07:50;;;;;;;;;;;;;;;;;;5030938;28;19920;-46
2023/10/08 10:10:15;;;;;;;;;;;;;;;;;;5035268;28;19909;-48
2023/10/08 10:12:43;;;;;;;;;;;;;;;;;;5049440;28;19952;-47
2023/10/08 10:15:10;;;;;;;;;;;;;;;;;;5042706;28;19912;-48
2023/10/08 10:17:36;;;;;;;;;;;;;;;;;;5051438;28;19956;-50
2023/10/08 10:20:03;;;;;;;;;;;;;;;;;;5051404;28;19975;-46
2023/10/08 10:22:29;;;;;;;;;;;;;;;;;;5051476;28;19999;-47
2023/10/08 10:24:55;;;;;;;;;;;;;;;;;;5049935;28;20051;-48
2023/10/08 10:27:21;;;;;;;;;;;;;;;;;;5050153;28;19924;-51
2023/10/08 10:29:48;;;;;;;;;;;;;;;;;;5050140;28;19920;-45
2023/10/08 10:32:17;;;;;;;;;;;;;;;;;;5051611;28;20403;-47
2023/10/08 10:34:43;;;;;;;;;;;;;;;;;;5051110;28;19912;-47
2023/10/08 10:37:09;;;;;;;;;;;;;;;;;;5032101;28;19910;-46
2023/10/08 10:39:39;;;;;;;;;;;;;;;;;;5043724;28;20287;-46
2023/10/08 10:42:06;;;;;;;;;;;;;;;;;;5047736;28;20375;-48
2023/10/08 10:44:32;;;;;;;;;;;;;;;;;;5041586;28;19992;-45
2023/10/08 10:49:51;;;;;;;;;;;;;;;;;;5076244;28;19910;-45
2023/10/08 10:52:19;;;;;;;;;;;;;;;;;;5057656;28;19915;-47
2023/10/08 10:54:58;;;;;;;;;;;;;;;;;;5057985;28;20288;-46
2023/10/08 10:57:26;;;;;;;;;;;;;;;;;;5057603;28;19913;-49
2023/10/08 10:59:55;;;;;;;;;;;;;;;;;;5056047;28;19919;-48
2023/10/08 11:02:30;;;;;;;;;;;;;;;;;;5056408;28;19909;-48
2023/10/08 11:05:01;;;;;;;;;;;;;;;;;;5057536;28;19916;-49
2023/10/08 11:07:33;;;;;;;;;;;;;;;;;;5056837;28;20394;-47
2023/10/08 11:09:59;;;;;;;;;;;;;;;;;;5056758;28;19954;-46
2023/10/08 11:12:42;;;;;;;;;;;;;;;;;;5056645;28;19912;-47
2023/10/08 11:15:14;;;;;;;;;;;;;;;;;;5051142;28;19920;-46
2023/10/08 11:17:40;;;;;;;;;;;;;;;;;;5055765;28;20364;-50
2023/10/08 11:20:07;;;;;;;;;;;;;;;;;;5053401;28;19927;-46
2023/10/08 11:22:33;;;;;;;;;;;;;;;;;;5054618;28;19915;-46
2023/10/08 11:24:59;;;;;;;;;;;;;;;;;;5055849;28;19908;-46
2023/10/08 11:27:37;;;;;;;;;;;;;;;;;;5055790;28;19962;-46
2023/10/08 11:30:10;;;;;;;;;;;;;;;;;;5054467;28;19924;-47
2023/10/08 11:32:38;;;;;;;;;;;;;;;;;;5036009;28;19963;-45
2023/10/08 11:35:15;;;;;;;;;;;;;;;;;;5049156;28;19920;-46
2023/10/08 11:37:43;;;;;;;;;;;;;;;;;;5055592;28;20367;-45
2023/10/08 11:40:17;;;;;;;;;;;;;;;;;;5055176;28;19912;-46
2023/10/08 11:42:43;;;;;;;;;;;;;;;;;;5044835;28;19912;-47
2023/10/08 11:45:19;;;;;;;;;;;;;;;;;;5035406;28;19909;-46
2023/10/08 11:47:45;;;;;;;;;;;;;;;;;;5061186;28;19909;-48
2023/10/08 11:50:11;;;;;;;;;;;;;;;;;;5065707;28;19909;-50
2023/10/08 11:52:41;;;;;;;;;;;;;;;;;;5053748;28;20283;-50
2023/10/08 11:55:07;;;;;;;;;;;;;;;;;;5043282;28;20442;-47
2023/10/08 11:57:35;;;;;;;;;;;;;;;;;;5051401;28;19995;-48
2023/10/08 12:00:01;;;;;;;;;;;;;;;;;;5047823;28;19996;-50
2023/10/08 12:02:27;;;;;;;;;;;;;;;;;;5052144;28;20406;-50
2023/10/08 12:04:57;;;;;;;;;;;;;;;;;;5041396;28;20000;-50
2023/10/08 12:07:27;;;;;;;;;;;;;;;;;;5048752;28;19959;-47
2023/10/08 12:09:54;;;;;;;;;;;;;;;;;;5052194;28;19924;-46
2023/10/08 12:12:23;;;;;;;;;;;;;;;;;;5052152;28;19909;-48
2023/10/08 12:14:49;;;;;;;;;;;;;;;;;;5052164;28;20307;-48
2023/10/08 12:17:17;;;;;;;;;;;;;;;;;;5052039;28;19921;-46
2023/10/08 12:19:43;;;;;;;;;;;;;;;;;;5052458;28;19908;-47
2023/10/08 12:22:09;;;;;;;;;;;;;;;;;;5051989;28;19916;-48
2023/10/08 12:24:35;;;;;;;;;;;;;;;;;;5047809;28;19932;-48
2023/10/08 12:27:03;;;;;;;;;;;;;;;;;;5056265;28;19915;-49
2023/10/08 12:29:28;;;;;;;;;;;;;;;;;;5062666;28;19954;-47
2023/10/08 12:31:54;;;;;;;;;;;;;;;;;;5049390;28;19920;-48
2023/10/08 12:34:22;;;;;;;;;;;;;;;;;;5050177;28;20306;-50
2023/10/08 12:36:48;;;;;;;;;;;;;;;;;;5050359;28;19958;-51
2023/10/08 12:39:14;;;;;;;;;;;;;;;;;;5049275;28;20015;-48
2023/10/08 12:41:41;;;;;;;;;;;;;;;;;;5050740;28;19909;-51
2023/10/08 12:44:08;;;;;;;;;;;;;;;;;;5049942;28;19917;-49
2023/10/08 12:46:34;;;;;;;;;;;;;;;;;;5049870;28;19970;-47
2023/10/08 12:49:01;;;;;;;;;;;;;;;;;;5050544;28;20299;-49
2023/10/08 12:51:31;;;;;;;;;;;;;;;;;;5058949;28;19924;-48
2023/10/08 12:54:03;;;;;;;;;;;;;;;;;;5050566;28;19986;-46
2023/10/08 12:56:38;;;;;;;;;;;;;;;;;;5050285;28;19917;-49
2023/10/08 12:59:06;;;;;;;;;;;;;;;;;;5046354;28;19913;-49
2023/10/08 13:01:32;;;;;;;;;;;;;;;;;;5049856;28;19913;-47
2023/10/08 13:04:01;;;;;;;;;;;;;;;;;;5051146;28;19916;-47
2023/10/08 13:06:30;;;;;;;;;;;;;;;;;;5069834;28;19917;-50
2023/10/08 13:08:56;;;;;;;;;;;;;;;;;;5049842;28;19915;-46
2023/10/08 13:11:25;;;;;;;;;;;;;;;;;;5048135;28;19999;-46
2023/10/08 13:13:51;;;;;;;;;;;;;;;;;;5049163;28;20357;-49
2023/10/08 13:16:17;;;;;;;;;;;;;;;;;;5048037;28;19916;-48
2023/10/08 13:18:43;;;;;;;;;;;;;;;;;;5049414;28;20442;-49
2023/10/08 13:21:09;;;;;;;;;;;;;;;;;;5047217;28;19913;-48
2023/10/08 13:23:35;;;;;;;;;;;;;;;;;;5049964;28;20269;-46
2023/10/08 13:26:04;;;;;;;;;;;;;;;;;;5049754;28;19969;-49
2023/10/08 13:28:30;;;;;;;;;;;;;;;;;;5048609;28;19958;-47
2023/10/08 13:30:56;;;;;;;;;;;;;;;;;;5050450;28;19912;-49
2023/10/08 13:33:24;;;;;;;;;;;;;;;;;;5048414;28;20280;-49
2023/10/08 13:35:50;;;;;;;;;;;;;;;;;;5048596;28;19923;-46
2023/10/08 13:38:16;;;;;;;;;;;;;;;;;;5060932;28;19909;-50
2023/10/08 13:40:43;;;;;;;;;;;;;;;;;;5047826;28;20342;-46
2023/10/08 13:43:11;;;;;;;;;;;;;;;;;;5029693;28;19909;-46
2023/10/08 13:45:39;;;;;;;;;;;;;;;;;;5027656;28;19916;-49
2023/10/08 13:48:05;;;;;;;;;;;;;;;;;;5047438;28;20007;-49
2023/10/08 13:50:31;;;;;;;;;;;;;;;;;;5048248;28;19999;-46
2023/10/08 13:52:58;;;;;;;;;;;;;;;;;;5050615;28;19912;-50
2023/10/08 13:55:25;;;;;;;;;;;;;;;;;;5048902;28;19912;-47
2023/10/08 13:57:51;;;;;;;;;;;;;;;;;;5047838;28;19917;-50
2023/10/08 14:00:25;;;;;;;;;;;;;;;;;;5042785;28;19917;-46
2023/10/08 14:02:52;;;;;;;;;;;;;;;;;;5048998;28;19921;-49
2023/10/08 14:05:21;;;;;;;;;;;;;;;;;;5049014;28;19909;-49
2023/10/08 14:07:49;;;;;;;;;;;;;;;;;;5048654;28;19923;-46
2023/10/08 14:10:18;;;;;;;;;;;;;;;;;;5049965;28;19944;-50
2023/10/08 14:12:44;;;;;;;;;;;;;;;;;;5049971;28;19913;-48
2023/10/08 14:15:14;;;;;;;;;;;;;;;;;;5048674;28;20440;-47
2023/10/08 14:17:42;;;;;;;;;;;;;;;;;;5048952;28;19969;-48
2023/10/08 14:20:12;;;;;;;;;;;;;;;;;;5049275;28;20433;-47
2023/10/08 14:22:40;;;;;;;;;;;;;;;;;;5031679;28;19944;-46
2023/10/08 14:25:11;;;;;;;;;;;;;;;;;;5056441;28;20324;-47
2023/10/08 14:27:39;;;;;;;;;;;;;;;;;;5069490;28;19943;-46
2023/10/08 14:30:05;;;;;;;;;;;;;;;;;;5043558;28;19996;-49
2023/10/08 14:32:32;;;;;;;;;;;;;;;;;;5049164;28;20042;-50
2023/10/08 14:43:12;;;;;;;;;;;;;;;;;;5048613;28;19955;-48
2023/10/08 14:45:40;;;;;;;;;;;;;;;;;;5030703;28;20383;-45
2023/10/08 14:48:11;;;;;;;;;;;;;;;;;;5049501;28;19967;-49
2023/10/08 14:50:38;;;;;;;;;;;;;;;;;;5048077;28;19916;-45
2023/10/08 14:53:05;;;;;;;;;;;;;;;;;;5049330;28;19908;-45
2023/10/08 14:55:33;;;;;;;;;;;;;;;;;;5048477;28;19917;-46
2023/10/08 14:58:06;;;;;;;;;;;;;;;;;;5048497;28;19912;-48
2023/10/08 15:00:35;;;;;;;;;;;;;;;;;;5049034;28;20331;-46
2023/10/08 15:03:02;;;;;;;;;;;;;;;;;;5047938;28;20000;-48
2023/10/08 15:05:28;;;;;;;;;;;;;;;;;;5047341;28;19964;-47
2023/10/08 15:07:55;;;;;;;;;;;;;;;;;;5048602;28;19941;-47
2023/10/08 15:10:21;;;;;;;;;;;;;;;;;;5046558;28;19915;-48
2023/10/08 15:12:47;;;;;;;;;;;;;;;;;;5048265;28;19939;-46
2023/10/08 15:15:13;;;;;;;;;;;;;;;;;;5045976;28;19917;-49
2023/10/08 15:17:40;;;;;;;;;;;;;;;;;;5040113;28;19925;-48
2023/10/08 15:20:06;;;;;;;;;;;;;;;;;;5062507;28;19916;-46
2023/10/08 15:22:32;;;;;;;;;;;;;;;;;;5048368;28;20304;-46
2023/10/08 15:24:58;;;;;;;;;;;;;;;;;;5048711;28;20272;-47
2023/10/08 15:27:24;;;;;;;;;;;;;;;;;;5048521;28;20007;-46
2023/10/08 15:29:50;;;;;;;;;;;;;;;;;;5052253;28;19909;-47
2023/10/08 15:32:16;;;;;;;;;;;;;;;;;;5052214;28;19955;-47
2023/10/08 15:34:42;;;;;;;;;;;;;;;;;;5063459;28;19920;-47
2023/10/08 15:37:08;;;;;;;;;;;;;;;;;;5072436;28;19908;-46
2023/10/08 15:39:34;;;;;;;;;;;;;;;;;;5071837;28;19913;-47
2023/10/08 15:42:00;;;;;;;;;;;;;;;;;;5069482;28;19909;-47
2023/10/08 15:44:26;;;;;;;;;;;;;;;;;;5050470;28;20276;-47
2023/10/08 15:46:52;;;;;;;;;;;;;;;;;;5051688;28;19916;-47
2023/10/08 15:49:21;;;;;;;;;;;;;;;;;;5050212;28;20303;-47
2023/10/08 15:51:47;;;;;;;;;;;;;;;;;;5050895;28;19912;-46
2023/10/08 15:54:12;;;;;;;;;;;;;;;;;;5050553;28;19962;-48
2023/10/08 15:56:38;;;;;;;;;;;;;;;;;;5049434;28;19916;-47
2023/10/08 15:59:04;;;;;;;;;;;;;;;;;;5048936;28;19916;-49
2023/10/08 16:01:30;;;;;;;;;;;;;;;;;;5049821;28;19913;-49
2023/10/08 16:03:56;;;;;;;;;;;;;;;;;;5064070;28;19909;-47
2023/10/08 16:06:22;;;;;;;;;;;;;;;;;;5068940;28;19917;-47
2023/10/08 16:08:48;;;;;;;;;;;;;;;;;;5049359;28;19959;-49
2023/10/08 16:11:14;;;;;;;;;;;;;;;;;;5049906;28;19923;-47
2023/10/08 16:13:42;;;;;;;;;;;;;;;;;;5050217;28;20058;-49
2023/10/08 16:16:08;;;;;;;;;;;;;;;;;;5049505;28;19909;-50
2023/10/08 16:18:34;;;;;;;;;;;;;;;;;;5049518;28;19920;-47
2023/10/08 16:21:00;;;;;;;;;;;;;;;;;;5068276;28;20019;-47
2023/10/08 16:23:29;;;;;;;;;;;;;;;;;;5049610;28;20300;-48
2023/10/08 16:25:55;;;;;;;;;;;;;;;;;;5061821;28;19994;-51
2023/10/08 16:28:21;;;;;;;;;;;;;;;;;;5027830;28;19927;-48
2023/10/08 16:30:51;;;;;;;;;;;;;;;;;;5045355;28;19974;-50
2023/10/08 16:33:17;;;;;;;;;;;;;;;;;;5038224;28;19917;-47
2023/10/08 16:35:46;;;;;;;;;;;;;;;;;;5044759;28;19916;-46
2023/10/08 16:38:13;;;;;;;;;;;;;;;;;;5045938;28;20703;-46
2023/10/08 16:40:39;;;;;;;;;;;;;;;;;;5060750;28;19908;-47
2023/10/08 16:43:11;;;;;;;;;;;;;;;;;;5054111;28;19917;-46
2023/10/08 16:45:37;;;;;;;;;;;;;;;;;;5047051;28;19917;-46
2023/10/08 16:48:03;;;;;;;;;;;;;;;;;;5044496;28;19920;-49
2023/10/08 16:50:32;;;;;;;;;;;;;;;;;;5047497;28;19912;-47
2023/10/08 16:52:58;;;;;;;;;;;;;;;;;;5045464;28;19943;-50
2023/10/08 16:55:25;;;;;;;;;;;;;;;;;;5045744;28;19916;-48
2023/10/08 16:57:50;;;;;;;;;;;;;;;;;;5043437;28;19920;-46
2023/10/08 17:00:16;;;;;;;;;;;;;;;;;;5043546;28;20304;-46
2023/10/08 17:02:42;;;;;;;;;;;;;;;;;;5043348;28;19913;-50
2023/10/08 17:05:08;;;;;;;;;;;;;;;;;;5045858;28;20553;-48
2023/10/08 17:07:34;;;;;;;;;;;;;;;;;;5045119;28;19913;-46
2023/10/08 17:10:00;;;;;;;;;;;;;;;;;;5026129;28;19952;-46
2023/10/08 17:12:26;;;;;;;;;;;;;;;;;;5046650;28;20394;-42
2023/10/08 17:14:52;;;;;;;;;;;;;;;;;;5044381;28;19921;-44
2023/10/08 17:17:19;;;;;;;;;;;;;;;;;;5046356;28;20347;-48
2023/10/08 17:19:45;;;;;;;;;;;;;;;;;;5047767;28;20003;-47
2023/10/08 17:22:10;;;;;;;;;;;;;;;;;;5048171;28;20000;-47
2023/10/08 17:24:36;;;;;;;;;;;;;;;;;;5045772;28;19923;-47
2023/10/08 17:27:02;;;;;;;;;;;;;;;;;;5056612;28;20118;-47
2023/10/08 17:29:30;;;;;;;;;;;;;;;;;;5044615;28;19920;-47
2023/10/08 17:31:56;;;;;;;;;;;;;;;;;;5045287;28;20346;-47
2023/10/08 17:34:24;;;;;;;;;;;;;;;;;;5045330;28;20270;-46
2023/10/08 17:36:50;;;;;;;;;;;;;;;;;;5046135;28;19970;-47
2023/10/08 17:39:19;;;;;;;;;;;;;;;;;;5042729;28;19923;-50
2023/10/08 17:41:45;;;;;;;;;;;;;;;;;;5046967;28;20315;-48
2023/10/08 17:44:13;;;;;;;;;;;;;;;;;;5026695;28;20300;-48
2023/10/08 17:46:38;;;;;;;;;;;;;;;;;;5045176;28;20308;-49
2023/10/08 17:49:05;;;;;;;;;;;;;;;;;;5045297;28;19920;-48
2023/10/08 17:51:34;;;;;;;;;;;;;;;;;;5040060;28;19924;-50
2023/10/08 17:54:01;;;;;;;;;;;;;;;;;;5047297;28;19947;-48
2023/10/08 17:56:27;;;;;;;;;;;;;;;;;;5044772;28;19988;-47
2023/10/08 17:58:53;;;;;;;;;;;;;;;;;;5046935;28;19913;-50
2023/10/08 18:01:19;;;;;;;;;;;;;;;;;;5044831;28;19916;-47
2023/10/08 18:03:47;;;;;;;;;;;;;;;;;;5040400;28;19939;-45
2023/10/08 18:06:14;;;;;;;;;;;;;;;;;;5043474;28;19912;-49
2023/10/08 18:08:40;;;;;;;;;;;;;;;;;;5041761;28;19912;-46
2023/10/08 18:11:06;;;;;;;;;;;;;;;;;;5024858;28;19913;-48
2023/10/08 18:13:32;;;;;;;;;;;;;;;;;;5042834;28;19920;-46
2023/10/08 18:15:59;;;;;;;;;;;;;;;;;;5043807;28;20292;-46
2023/10/08 18:18:28;;;;;;;;;;;;;;;;;;5043886;28;20006;-46
2023/10/08 18:20:57;;;;;;;;;;;;;;;;;;5043258;28;19999;-46
2023/10/08 18:23:23;;;;;;;;;;;;;;;;;;5041832;28;19936;-48
2023/10/08 18:25:49;;;;;;;;;;;;;;;;;;5041170;28;20383;-48
2023/10/08 18:28:16;;;;;;;;;;;;;;;;;;5036215;28;19952;-46
2023/10/08 18:30:43;;;;;;;;;;;;;;;;;;5040609;28;20134;-47
2023/10/08 18:33:11;;;;;;;;;;;;;;;;;;5040745;28;19920;-46
2023/10/08 18:35:38;;;;;;;;;;;;;;;;;;5039360;28;20328;-47
2023/10/08 18:38:03;;;;;;;;;;;;;;;;;;5045452;28;19913;-42
2023/10/08 18:40:32;;;;;;;;;;;;;;;;;;5040858;28;19930;-43
2023/10/08 18:42:58;;;;;;;;;;;;;;;;;;5042660;28;19920;-43
2023/10/08 18:45:24;;;;;;;;;;;;;;;;;;5044705;28;19919;-44
2023/10/08 18:47:50;;;;;;;;;;;;;;;;;;5042030;28;19912;-43
2023/10/08 18:50:17;;;;;;;;;;;;;;;;;;5039355;28;19913;-44
2023/10/08 18:52:43;;;;;;;;;;;;;;;;;;5042186;28;19927;-44
2023/10/08 18:55:09;;;;;;;;;;;;;;;;;;5036966;28;19920;-43
2023/10/08 18:57:35;;;;;;;;;;;;;;;;;;5026357;28;20407;-50
2023/10/08 19:00:08;;;;;;;;;;;;;;;;;;5044107;28;20275;-49
2023/10/08 19:02:35;;;;;;;;;;;;;;;;;;5018585;28;19913;-51
2023/10/08 19:05:01;;;;;;;;;;;;;;;;;;5048415;28;20498;-44
2023/10/08 19:07:27;;;;;;;;;;;;;;;;;;5049013;28;19943;-43
2023/10/08 19:09:54;;;;;;;;;;;;;;;;;;5049606;28;19917;-43
2023/10/08 19:12:20;;;;;;;;;;;;;;;;;;5046173;28;19923;-43
2023/10/08 19:14:45;;;;;;;;;;;;;;;;;;5045382;28;20338;-42
2023/10/08 19:17:14;;;;;;;;;;;;;;;;;;5049333;28;19925;-46
2023/10/08 19:19:40;;;;;;;;;;;;;;;;;;5053653;28;19912;-43
2023/10/08 19:22:07;;;;;;;;;;;;;;;;;;5064336;28;19916;-43
2023/10/08 19:24:33;;;;;;;;;;;;;;;;;;5047407;28;19999;-44
2023/10/08 19:26:59;;;;;;;;;;;;;;;;;;5044326;28;20012;-43
2023/10/08 19:29:25;;;;;;;;;;;;;;;;;;5047112;28;19958;-42
2023/10/08 19:31:53;;;;;;;;;;;;;;;;;;5045751;28;19962;-43
2023/10/08 19:34:19;;;;;;;;;;;;;;;;;;5047668;28;19935;-42
2023/10/08 19:36:47;;;;;;;;;;;;;;;;;;5046700;28;20379;-43
2023/10/08 19:39:13;;;;;;;;;;;;;;;;;;5048183;28;19913;-45
2023/10/08 19:41:39;;;;;;;;;;;;;;;;;;5045335;28;20311;-43
2023/10/08 19:44:05;;;;;;;;;;;;;;;;;;5028238;28;19934;-43
2023/10/08 19:46:30;;;;;;;;;;;;;;;;;;5043178;28;19937;-43
2023/10/08 19:48:57;;;;;;;;;;;;;;;;;;5039111;28;19939;-43
2023/10/08 19:51:23;;;;;;;;;;;;;;;;;;5047248;28;19909;-44
2023/10/08 19:53:51;;;;;;;;;;;;;;;;;;5048450;28;19923;-43
2023/10/08 19:56:17;;;;;;;;;;;;;;;;;;5031762;28;19909;-43
2023/10/08 19:58:43;;;;;;;;;;;;;;;;;;5031844;28;19909;-43
2023/10/08 20:01:09;;;;;;;;;;;;;;;;;;5049443;28;19955;-43
2023/10/08 20:03:35;;;;;;;;;;;;;;;;;;5044742;28;20391;-44
2023/10/08 20:06:02;;;;;;;;;;;;;;;;;;5028119;28;19931;-43
2023/10/08 20:08:28;;;;;;;;;;;;;;;;;;5025700;28;19943;-44
2023/10/08 20:10:53;;;;;;;;;;;;;;;;;;5044991;28;19917;-44
2023/10/08 20:13:20;;;;;;;;;;;;;;;;;;5048401;28;19947;-44
2023/10/08 20:15:47;;;;;;;;;;;;;;;;;;5045521;28;20334;-46
2023/10/08 20:18:13;;;;;;;;;;;;;;;;;;5030422;28;19916;-44
2023/10/08 20:20:39;;;;;;;;;;;;;;;;;;5048117;28;19919;-44
2023/10/08 20:23:05;;;;;;;;;;;;;;;;;;5032389;28;19962;-44
2023/10/08 20:25:31;;;;;;;;;;;;;;;;;;5030480;28;19909;-43
2023/10/08 20:27:57;;;;;;;;;;;;;;;;;;5046836;28;19967;-44
2023/10/08 20:30:23;;;;;;;;;;;;;;;;;;5046958;28;19920;-44
2023/10/08 20:32:51;;;;;;;;;;;;;;;;;;5047228;28;19909;-43
2023/10/08 20:35:20;;;;;;;;;;;;;;;;;;5047035;28;20468;-42
2023/10/08 20:37:46;;;;;;;;;;;;;;;;;;5048626;28;19921;-43
2023/10/08 20:40:19;;;;;;;;;;;;;;;;;;5047834;28;19913;-43
2023/10/08 20:42:47;;;;;;;;;;;;;;;;;;5048207;28;19913;-44
2023/10/08 20:45:13;;;;;;;;;;;;;;;;;;5048406;28;19954;-45
2023/10/08 20:47:39;;;;;;;;;;;;;;;;;;5047176;28;19921;-44
2023/10/08 20:50:12;;;;;;;;;;;;;;;;;;5036160;28;19913;-44
2023/10/08 20:52:38;;;;;;;;;;;;;;;;;;5048617;28;19920;-42
2023/10/08 20:55:06;;;;;;;;;;;;;;;;;;5048373;28;19967;-45
2023/10/08 20:57:32;;;;;;;;;;;;;;;;;;5049120;28;19909;-43
2023/10/08 20:59:59;;;;;;;;;;;;;;;;;;5044882;28;19958;-43
2023/10/08 21:02:24;;;;;;;;;;;;;;;;;;5048978;28;19952;-42
2023/10/08 21:04:53;;;;;;;;;;;;;;;;;;5048468;28;20452;-42
2023/10/08 21:07:19;;;;;;;;;;;;;;;;;;5050258;28;19909;-43
2023/10/08 21:09:44;;;;;;;;;;;;;;;;;;5050755;28;19905;-43
2023/10/08 21:12:10;;;;;;;;;;;;;;;;;;5050143;28;20386;-42
2023/10/08 21:14:36;;;;;;;;;;;;;;;;;;5050174;28;19913;-43
2023/10/08 21:17:02;;;;;;;;;;;;;;;;;;5049740;28;19916;-44
2023/10/08 21:19:28;;;;;;;;;;;;;;;;;;5032086;28;19923;-44
2023/10/08 21:21:54;;;;;;;;;;;;;;;;;;5049874;28;19934;-43
2023/10/08 21:24:20;;;;;;;;;;;;;;;;;;5049919;28;19908;-42
2023/10/08 21:26:46;;;;;;;;;;;;;;;;;;5050099;28;19909;-42
2023/10/08 21:29:13;;;;;;;;;;;;;;;;;;5050264;28;19916;-42
2023/10/08 21:31:41;;;;;;;;;;;;;;;;;;5031989;28;20015;-43
2023/10/08 21:34:07;;;;;;;;;;;;;;;;;;5049674;28;19963;-44
2023/10/08 21:36:33;;;;;;;;;;;;;;;;;;5049937;28;20501;-44
2023/10/08 21:38:59;;;;;;;;;;;;;;;;;;5049747;28;19916;-43
2023/10/08 21:41:24;;;;;;;;;;;;;;;;;;5049537;28;20390;-44
2023/10/08 21:43:50;;;;;;;;;;;;;;;;;;5049720;28;19916;-44
2023/10/08 21:46:16;;;;;;;;;;;;;;;;;;5050237;28;19995;-43
2023/10/08 21:48:42;;;;;;;;;;;;;;;;;;5049835;28;19909;-43
2023/10/08 21:51:08;;;;;;;;;;;;;;;;;;5031614;28;19916;-42
2023/10/08 21:53:34;;;;;;;;;;;;;;;;;;5031179;28;19909;-43
2023/10/08 21:56:00;;;;;;;;;;;;;;;;;;5049686;28;19916;-43
2023/10/08 21:58:26;;;;;;;;;;;;;;;;;;5049245;28;20423;-42
2023/10/08 22:00:59;;;;;;;;;;;;;;;;;;5049114;28;19908;-43
2023/10/08 22:03:25;;;;;;;;;;;;;;;;;;5048995;28;19916;-44
2023/10/08 22:05:52;;;;;;;;;;;;;;;;;;5048934;28;20367;-44
2023/10/08 22:08:22;;;;;;;;;;;;;;;;;;5048766;28;19916;-43
2023/10/08 22:10:48;;;;;;;;;;;;;;;;;;5048633;28;20445;-43
2023/10/08 22:13:17;;;;;;;;;;;;;;;;;;5049358;28;19996;-45
2023/10/08 22:15:55;;;;;;;;;;;;;;;;;;5049410;28;20015;-44
2023/10/08 22:18:28;;;;;;;;;;;;;;;;;;5030176;28;19916;-46
2023/10/08 22:20:54;;;;;;;;;;;;;;;;;;5047893;28;19919;-43
2023/10/08 22:23:25;;;;;;;;;;;;;;;;;;5047966;28;19909;-43
2023/10/08 22:25:52;;;;;;;;;;;;;;;;;;5030220;28;19909;-43
2023/10/08 22:28:19;;;;;;;;;;;;;;;;;;5048160;28;19909;-42
2023/10/08 22:30:51;;;;;;;;;;;;;;;;;;5048884;28;19909;-41
2023/10/08 22:33:18;;;;;;;;;;;;;;;;;;5049404;28;19912;-43
2023/10/08 22:35:44;;;;;;;;;;;;;;;;;;5049254;28;19983;-44
2023/10/08 22:38:15;;;;;;;;;;;;;;;;;;5047895;28;19995;-42
2023/10/08 22:41:35;;;;;;;;;;;;;;;;;;5048984;28;19912;-44
2023/10/08 22:43:39;;;;;;;;;;;;;;;;;;5040347;28;20371;-42
2023/10/08 22:46:08;;;;;;;;;;;;;;;;;;5048878;28;20516;-43
2023/10/08 22:48:43;;;;;;;;;;;;;;;;;;5048470;28;19915;-43
2023/10/08 22:51:11;;;;;;;;;;;;;;;;;;5048634;28;19909;-43
2023/10/08 22:53:36;;;;;;;;;;;;;;;;;;5048545;28;19913;-43